sensor_id;sensor_type;location;lat;lon;timestamp;pressure;altitude;pressure_sealevel;temperature;humidity
85053;BME280;75382;46.706;12.340;2024-03-23T00:53:22;1015.6737200945971;;;8.5142578125;48.95980067595581
85053;BME280;75382;46.706;12.340;2024-03-23T00:54:22;1015.650669232105;;;8.4990234375;48.93747479740304
85053;BME280;75382;46.706;12.340;2024-03-23T00:55:22;1015.6574121543505;;;8.48359375;48.931961310912946
85053;BME280;75382;46.706;12.340;2024-03-23T00:56:25;1015.6881057591802;;;8.478515625;49.008739446778705
85053;BME280;75382;46.706;12.340;2024-03-23T00:57:22;1015.6822946570094;;;8.468359375;48.74907607862026
85053;BME280;75382;46.706;12.340;2024-03-23T00:58:22;1015.6562632397752;;;8.44296875;48.930734394761224
85053;BME280;75382;46.706;12.340;2024-03-23T00:59:23;1015.6826045135718;;;8.4328125;49.14008006900501
85053;BME280;75382;46.706;12.340;2024-03-23T01:00:30;1015.7164312595215;;;8.427734375;49.01301662889384
85053;BME280;75382;46.706;12.340;2024-03-23T01:01:22;1015.6844052015712;;;8.427734375;48.91351752969083
85053;BME280;75382;46.706;12.340;2024-03-23T01:02:21;1015.692044244746;;;8.4021484375;48.99014685809342
85053;BME280;75382;46.706;12.340;2024-03-23T01:03:22;1015.6920685624132;;;8.3919921875;48.835666314398885
85053;BME280;75382;46.706;12.340;2024-03-23T01:04:21;1015.7359208532912;;;8.3818359375;49.00627306797627
85053;BME280;75382;46.706;12.340;2024-03-23T01:05:21;1015.7154196037345;;;8.3716796875;49.08274614302928
85053;BME280;75382;46.706;12.340;2024-03-23T01:06:22;1015.6974636771092;;;8.35625;48.828935754481066
85053;BME280;75382;46.706;12.340;2024-03-23T01:07:27;1015.6459906382137;;;8.330859375;49.01605879972018
85053;BME280;75382;46.706;12.340;2024-03-23T01:08:25;1015.6213209393525;;;8.330859375;48.784169175895954
85053;BME280;75382;46.706;12.340;2024-03-23T01:09:21;1015.5975296225618;;;8.310546875;48.882964333051326
85053;BME280;75382;46.706;12.340;2024-03-23T01:10:21;1015.5598237006911;;;8.30546875;48.99856109173547
85053;BME280;75382;46.706;12.340;2024-03-23T01:11:21;1015.5140408972886;;;8.2953125;48.937667453317246
85053;BME280;75382;46.706;12.340;2024-03-23T01:12:22;1015.5150909882225;;;8.2595703125;48.81575051325013
85053;BME280;75382;46.706;12.340;2024-03-23T01:13:23;1015.5068815407742;;;8.2595703125;49.002564562527546
85053;BME280;75382;46.706;12.340;2024-03-23T01:14:21;1015.5252853030037;;;8.2291015625;49.28343511392347
85053;BME280;75382;46.706;12.340;2024-03-23T01:15:25;1015.5623893675821;;;8.2240234375;48.91371378280814
85053;BME280;75382;46.706;12.340;2024-03-23T01:16:21;1015.5502692831444;;;8.203515625;48.94112754122827
85053;BME280;75382;46.706;12.340;2024-03-23T01:17:21;1015.5009137990729;;;8.193359375;49.11674872861714
85053;BME280;75382;46.706;12.340;2024-03-23T01:18:22;1015.5215584955106;;;8.16796875;49.06661221734333
85053;BME280;75382;46.706;12.340;2024-03-23T01:19:22;1015.4733829223849;;;8.162890625;48.923229313825736
85053;BME280;75382;46.706;12.340;2024-03-23T01:20:24;1015.5121274377001;;;8.152734375;49.28061387969231
85053;BME280;75382;46.706;12.340;2024-03-23T01:21:21;1015.4572227419687;;;8.1271484375;49.19770717362451
85053;BME280;75382;46.706;12.340;2024-03-23T01:22:22;1015.45888031574;;;8.1169921875;49.4835611677084
85053;BME280;75382;46.706;12.340;2024-03-23T01:23:21;1015.4754811541081;;;8.1017578125;49.23005714862287
85053;BME280;75382;46.706;12.340;2024-03-23T01:24:24;1015.4735219941019;;;8.076171875;49.30617616892504
85053;BME280;75382;46.706;12.340;2024-03-23T01:25:21;1015.4660529248341;;;8.035546875;49.36590677761694
85053;BME280;75382;46.706;12.340;2024-03-23T01:26:30;1015.4178782836826;;;8.025390625;49.33794162285137
85053;BME280;75382;46.706;12.340;2024-03-23T01:27:22;1015.432078406759;;;7.9998046875;49.392582769242594
85053;BME280;75382;46.706;12.340;2024-03-23T01:28:22;1015.3919914443821;;;7.9845703125;49.41403874764436
85053;BME280;75382;46.706;12.340;2024-03-23T01:29:21;1015.4144136408006;;;7.9642578125;49.59501105463864
85053;BME280;75382;46.706;12.340;2024-03-23T01:30:21;1015.3882349061988;;;7.9490234375;49.29176422996467
85053;BME280;75382;46.706;12.340;2024-03-23T01:31:21;1015.3497917847094;;;7.9234375;49.65440845954864
85053;BME280;75382;46.706;12.340;2024-03-23T01:32:21;1015.3918079928471;;;7.908203125;49.32380817161104
85053;BME280;75382;46.706;12.340;2024-03-23T01:33:21;1015.318821080305;;;7.903125;49.38958765427287
85053;BME280;75382;46.706;12.340;2024-03-23T01:34:21;1015.3343769529056;;;7.898046875;49.604138042770686
85053;BME280;75382;46.706;12.340;2024-03-23T01:35:22;1015.2688647998388;;;7.8828125;49.37771754846104
85053;BME280;75382;46.706;12.340;2024-03-23T01:36:21;1015.2920334526409;;;7.8623046875;49.49882122273489
85053;BME280;75382;46.706;12.340;2024-03-23T01:37:21;1015.2839500496334;;;7.8572265625;49.46014532148598
85053;BME280;75382;46.706;12.340;2024-03-23T01:38:21;1015.2896350044883;;;7.8521484375;49.503462272993794
85053;BME280;75382;46.706;12.340;2024-03-23T01:39:21;1015.3159509547008;;;7.8419921875;49.481589028431344
85053;BME280;75382;46.706;12.340;2024-03-23T01:40:21;1015.3128007513592;;;7.8369140625;49.76215060058439
85053;BME280;75382;46.706;12.340;2024-03-23T01:41:21;1015.3135535178344;;;7.8369140625;50.004159189615905
85053;BME280;75382;46.706;12.340;2024-03-23T01:42:22;1015.2873773075491;;;7.8318359375;49.66799545505456
85053;BME280;75382;46.706;12.340;2024-03-23T01:43:22;1015.2873773075491;;;7.8267578125;49.679300554149854
85053;BME280;75382;46.706;12.340;2024-03-23T01:44:21;1015.268532971205;;;7.8166015625;49.81673944881403
85053;BME280;75382;46.706;12.340;2024-03-23T01:45:21;1015.2152906157299;;;7.8064453125;49.79978636478987
85053;BME280;75382;46.706;12.340;2024-03-23T01:46:21;1015.2160430040401;;;7.8115234375;50.03642189662963
85053;BME280;75382;46.706;12.340;2024-03-23T01:47:21;1015.238315719661;;;7.8115234375;49.9152057305874
85053;BME280;75382;46.706;12.340;2024-03-23T01:48:21;1015.187471648193;;;7.79609375;49.898547715220175
85053;BME280;75382;46.706;12.340;2024-03-23T01:49:22;1015.238315719661;;;7.791015625;49.75010896965205
85053;BME280;75382;46.706;12.340;2024-03-23T01:50:22;1015.1907608922463;;;7.8115234375;49.81570542021924
85053;BME280;75382;46.706;12.340;2024-03-23T01:51:21;1015.1644469473426;;;7.791015625;49.914907930561284
85053;BME280;75382;46.706;12.340;2024-03-23T01:52:21;1015.1013406178586;;;7.7859375;49.832066599320214
85053;BME280;75382;46.706;12.340;2024-03-23T01:53:25;1015.1052406341743;;;7.77578125;49.75487714101807
85053;BME280;75382;46.706;12.340;2024-03-23T01:54:27;1015.0230122766361;;;7.780859375;49.78253954220401
85053;BME280;75382;46.706;12.340;2024-03-23T01:55:21;1015.0131449100451;;;7.770703125;49.963985700808536
85053;BME280;75382;46.706;12.340;2024-03-23T01:56:22;1015.0388466882974;;;7.77578125;50.002354311075955
85053;BME280;75382;46.706;12.340;2024-03-23T01:57:21;1014.9886187188894;;;7.760546875;49.72721515446072
85053;BME280;75382;46.706;12.340;2024-03-23T01:58:21;1015.0206163268984;;;7.760546875;49.62786841459204
85053;BME280;75382;46.706;12.340;2024-03-23T01:59:21;1014.9664886791984;;;7.750390625;49.704763543293296
85053;BME280;75382;46.706;12.340;2024-03-23T02:00:25;1014.9024955672462;;;7.750390625;49.85883977416601
85053;BME280;75382;46.706;12.340;2024-03-23T02:01:22;1014.9214784503398;;;7.73515625;49.759197152323246
85053;BME280;75382;46.706;12.340;2024-03-23T02:02:21;1014.9074290363259;;;7.75546875;49.91311453096325
85053;BME280;75382;46.706;12.340;2024-03-23T02:03:23;1014.8951668267654;;;7.7298828125;49.648707648364756
85053;BME280;75382;46.706;12.340;2024-03-23T02:04:25;1014.8896251455955;;;7.7298828125;49.56052190547769
85053;BME280;75382;46.706;12.340;2024-03-23T02:05:22;1014.8782564891768;;;7.7197265625;49.79147384698115
85053;BME280;75382;46.706;12.340;2024-03-23T02:06:21;1014.8133775831368;;;7.7044921875;49.647977792255276
85053;BME280;75382;46.706;12.340;2024-03-23T02:07:30;1014.7804908262832;;;7.6994140625;49.73586411659785
85053;BME280;75382;46.706;12.340;2024-03-23T02:08:25;1014.7362371818562;;;7.6841796875;49.90061485080643
85053;BME280;75382;46.706;12.340;2024-03-23T02:09:21;1014.7241196440226;;;7.6791015625;49.74091902902811
85053;BME280;75382;46.706;12.340;2024-03-23T02:10:22;1014.7463885001322;;;7.6689453125;49.9111704708264
85053;BME280;75382;46.706;12.340;2024-03-23T02:11:21;1014.7244047465474;;;7.65859375;49.71238223425963
85053;BME280;75382;46.706;12.340;2024-03-23T02:12:22;1014.7532493297845;;;7.643359375;49.63536268006486
85053;BME280;75382;46.706;12.340;2024-03-23T02:13:21;1014.7185811717;;;7.643359375;49.80575563511749
85053;BME280;75382;46.706;12.340;2024-03-23T02:14:21;1014.7120044768268;;;7.63828125;49.711794597504266
85053;BME280;75382;46.706;12.340;2024-03-23T02:15:21;1014.685839801004;;;7.623046875;49.67893452196943
85053;BME280;75382;46.706;12.340;2024-03-23T02:16:21;1014.6719355886257;;;7.623046875;49.761150721068965
85053;BME280;75382;46.706;12.340;2024-03-23T02:17:31;1014.677760938115;;;7.628125;49.78330782176607
85053;BME280;75382;46.706;12.340;2024-03-23T02:18:21;1014.6220033511703;;;7.61796875;49.77200490020578
85053;BME280;75382;46.706;12.340;2024-03-23T02:19:41;1014.6351560715023;;;7.5923828125;49.70584722640383
85053;BME280;75382;46.706;12.340;2024-03-23T02:20:46;1014.6237894652746;;;7.5873046875;49.66169346025525
85053;BME280;75382;46.706;12.340;2024-03-23T02:21:41;1014.5716066408207;;;7.5873046875;49.573387296268116
85053;BME280;75382;46.706;12.340;2024-03-23T02:22:41;1014.5967335297495;;;7.5822265625;49.787767976510764
85053;BME280;75382;46.706;12.340;2024-03-23T02:23:41;1014.604202696143;;;7.5771484375;49.84262391241825
85053;BME280;75382;46.706;12.340;2024-03-23T02:24:41;1014.6027003097956;;;7.5771484375;49.831771646612054
85053;BME280;75382;46.706;12.340;2024-03-23T02:25:41;1014.6025597762061;;;7.5517578125;49.721319959385525
85053;BME280;75382;46.706;12.340;2024-03-23T02:26:49;1014.6493430623797;;;7.5568359375;49.743174088500815
85053;BME280;75382;46.706;12.340;2024-03-23T02:27:47;1014.6527713470509;;;7.5517578125;49.874880883582826
85053;BME280;75382;46.706;12.340;2024-03-23T02:28:44;1014.6584551900424;;;7.5568359375;49.968228854905924
85053;BME280;75382;46.706;12.340;2024-03-23T02:29:44;1014.688186447194;;;7.5517578125;50.00107087315583
85053;BME280;75382;46.706;12.340;2024-03-23T02:30:41;1014.7170251284904;;;7.5365234375;50.127407904798794
85053;BME280;75382;46.706;12.340;2024-03-23T02:31:41;1014.7286710939214;;;7.526171875;49.989620387670165
85053;BME280;75382;46.706;12.340;2024-03-23T02:32:41;1014.7425754047737;;;7.52109375;50.02796543779256
85053;BME280;75382;46.706;12.340;2024-03-23T02:33:44;1014.6886028891608;;;7.52109375;49.74213613425869
85053;BME280;75382;46.706;12.340;2024-03-23T02:34:47;1014.7575085050568;;;7.52109375;50.0443122813948
85053;BME280;75382;46.706;12.340;2024-03-23T02:35:41;1014.7371580318452;;;7.495703125;50.060507346973665
85053;BME280;75382;46.706;12.340;2024-03-23T02:36:42;1014.7637306314895;;;7.490625;49.773649928552594
85053;BME280;75382;46.706;12.340;2024-03-23T02:37:46;1014.7818120026171;;;7.48046875;49.89447957208689
85053;BME280;75382;46.706;12.340;2024-03-23T02:38:41;1014.7909201411846;;;7.4703125;49.76755896341028
85053;BME280;75382;46.706;12.340;2024-03-23T02:39:42;1014.7696863940939;;;7.465234375;50.12496841962996
85053;BME280;75382;46.706;12.340;2024-03-23T02:40:42;1014.7360577579618;;;7.4447265625;50.05333819011611
85053;BME280;75382;46.706;12.340;2024-03-23T02:41:41;1014.7222889375339;;;6.8591796875;50.14100614798983
85053;BME280;75382;46.706;12.340;2024-03-23T02:42:42;1014.6974871501353;;;7.4345703125;49.92612391166532
85053;BME280;75382;46.706;12.340;2024-03-23T02:43:41;1014.6468051342911;;;7.4294921875;50.04143390725753
85053;BME280;75382;46.706;12.340;2024-03-23T02:44:42;1014.6614624404097;;;7.4091796875;49.93101638531758
85053;BME280;75382;46.706;12.340;2024-03-23T02:45:46;1014.6451615525814;;;7.4091796875;50.0516668543342
85053;BME280;75382;46.706;12.340;2024-03-23T02:46:41;1014.6560466970094;;;7.3888671875;49.97989533515799
85053;BME280;75382;46.706;12.340;2024-03-23T02:47:41;1014.6947367470743;;;7.38359375;49.96295097535318
85053;BME280;75382;46.706;12.340;2024-03-23T02:48:44;1014.6161162053154;;;7.368359375;49.890966889031894
85053;BME280;75382;46.706;12.340;2024-03-23T02:49:46;1014.6177596790038;;;7.353125;49.967996755113894
85053;BME280;75382;46.706;12.340;2024-03-23T02:50:47;1014.6202768602657;;;7.348046875;49.928909298423775
85053;BME280;75382;46.706;12.340;2024-03-23T02:51:42;1014.627738628011;;;7.3328125;49.90142383959187
85053;BME280;75382;46.706;12.340;2024-03-23T02:52:46;1014.5613816407299;;;7.327734375;50.23626980884209
85053;BME280;75382;46.706;12.340;2024-03-23T02:53:41;1014.585276657318;;;7.3173828125;50.08771230977166
85053;BME280;75382;46.706;12.340;2024-03-23T02:54:43;1014.5649341652694;;;7.3021484375;49.91716482865086
85053;BME280;75382;46.706;12.340;2024-03-23T02:55:44;1014.5526757667581;;;7.3021484375;49.9993131377126
85053;BME280;75382;46.706;12.340;2024-03-23T02:56:41;1014.5879220891442;;;7.2869140625;50.009852443194774
85053;BME280;75382;46.706;12.340;2024-03-23T02:57:46;1014.5938700795185;;;7.2767578125;50.04252673182381
85053;BME280;75382;46.706;12.340;2024-03-23T02:58:42;1014.6489823898437;;;7.2666015625;50.04236924291296
85053;BME280;75382;46.706;12.340;2024-03-23T02:59:42;1014.6286371874457;;;7.2564453125;50.11320688902668
85053;BME280;75382;46.706;12.340;2024-03-23T03:00:22;1014.6499981774967;;;7.24609375;50.085423999135
85053;BME280;75382;46.706;12.340;2024-03-23T03:01:22;1014.618150857376;;;7.241015625;50.36003630386402
85053;BME280;75382;46.706;12.340;2024-03-23T03:02:22;1014.6032101825082;;;7.230859375;50.37621007975936
85053;BME280;75382;46.706;12.340;2024-03-23T03:03:22;1014.5982809298284;;;7.220703125;50.32660038007389
85053;BME280;75382;46.706;12.340;2024-03-23T03:04:22;1014.585265420027;;;7.215625;50.30462059805557
85053;BME280;75382;46.706;12.340;2024-03-23T03:05:22;1014.5813509438542;;;7.20546875;50.276212238835626
85053;BME280;75382;46.706;12.340;2024-03-23T03:06:24;1014.6142112906468;;;7.18515625;50.28170685105417
85053;BME280;75382;46.706;12.340;2024-03-23T03:07:22;1014.5881790903577;;;7.1798828125;50.46820459625968
85053;BME280;75382;46.706;12.340;2024-03-23T03:08:22;1014.5785762683986;;;7.1646484375;50.533660989727494
85053;BME280;75382;46.706;12.340;2024-03-23T03:09:22;1014.5570638324617;;;7.1544921875;50.62156184952403
85053;BME280;75382;46.706;12.340;2024-03-23T03:10:22;1014.5373492576587;;;7.1392578125;50.58796579013641
85053;BME280;75382;46.706;12.340;2024-03-23T03:11:23;1014.534948623199;;;7.1240234375;50.642576388011406
85053;BME280;75382;46.706;12.340;2024-03-23T03:12:22;1014.5654050308599;;;7.1291015625;50.521563858405955
85053;BME280;75382;46.706;12.340;2024-03-23T03:13:22;1014.533432885712;;;7.1189453125;50.67521713597589
85053;BME280;75382;46.706;12.340;2024-03-23T03:14:22;1014.522944702626;;;7.10859375;50.69687007010269
85053;BME280;75382;46.706;12.340;2024-03-23T03:15:22;1014.5181427852398;;;7.093359375;50.795420015802506
85053;BME280;75382;46.706;12.340;2024-03-23T03:16:22;1014.5018414457153;;;7.08828125;50.673941010769866
85053;BME280;75382;46.706;12.340;2024-03-23T03:17:22;1014.465672038478;;;7.06796875;50.53113027279315
85053;BME280;75382;46.706;12.340;2024-03-23T03:18:22;1014.4855099021136;;;7.062890625;50.43146808394081
85053;BME280;75382;46.706;12.340;2024-03-23T03:19:22;1014.4732526714496;;;7.04765625;50.53017677271935
85053;BME280;75382;46.706;12.340;2024-03-23T03:20:24;1014.5054713068618;;;7.04765625;50.6450382293015
85053;BME280;75382;46.706;12.340;2024-03-23T03:21:22;1014.4457035996884;;;7.04765625;50.56799003304403
85053;BME280;75382;46.706;12.340;2024-03-23T03:22:22;1014.4925788248091;;;7.0220703125;50.693826728406705
85053;BME280;75382;46.706;12.340;2024-03-23T03:23:22;1014.429245404673;;;7.0119140625;50.677351512489714
85053;BME280;75382;46.706;12.340;2024-03-23T03:24:22;1014.4614597680619;;;7.0068359375;50.73178732991413
85053;BME280;75382;46.706;12.340;2024-03-23T03:25:22;1014.4196385786599;;;6.9916015625;50.82481171102673
85053;BME280;75382;46.706;12.340;2024-03-23T03:26:22;1014.404980262761;;;6.9814453125;50.824488577230994
85053;BME280;75382;46.706;12.340;2024-03-23T03:27:23;1014.4133157701135;;;6.966015625;50.714345088755074
85053;BME280;75382;46.706;12.340;2024-03-23T03:28:22;1014.3871606646142;;;6.966015625;50.56011516388021
85053;BME280;75382;46.706;12.340;2024-03-23T03:29:25;1014.391328147905;;;6.9609375;50.56011516388021
85053;BME280;75382;46.706;12.340;2024-03-23T03:30:22;1014.3977384102487;;;6.95078125;50.658475481345405
85053;BME280;75382;46.706;12.340;2024-03-23T03:31:30;1014.3666568075172;;;6.935546875;50.811723683315755
85053;BME280;75382;46.706;12.340;2024-03-23T03:32:22;1014.353641006852;;;6.925390625;50.95398024326301
85053;BME280;75382;46.706;12.340;2024-03-23T03:33:22;1014.3267273449087;;;6.8998046875;50.60793756003346
85053;BME280;75382;46.706;12.340;2024-03-23T03:34:22;1014.2884411178743;;;6.8845703125;50.83787995543416
85053;BME280;75382;46.706;12.340;2024-03-23T03:35:22;1014.3235267432082;;;6.8794921875;50.831904397737226
85053;BME280;75382;46.706;12.340;2024-03-23T03:36:22;1014.3335007601173;;;6.8541015625;50.94153162018675
85053;BME280;75382;46.706;12.340;2024-03-23T03:37:22;1014.2771504349231;;;6.8439453125;50.73227979131683
85053;BME280;75382;46.706;12.340;2024-03-23T03:38:37;1014.2847204762564;;;6.8234375;50.77554963139646
85053;BME280;75382;46.706;12.340;2024-03-23T03:39:23;1014.2602105171018;;;6.81328125;51.01108083904678
85053;BME280;75382;46.706;12.340;2024-03-23T03:40:22;1014.2912462065121;;;6.808203125;51.00526401414629
85053;BME280;75382;46.706;12.340;2024-03-23T03:41:22;1014.2749459541105;;;6.798046875;50.961029094353464
85053;BME280;75382;46.706;12.340;2024-03-23T03:42:22;1014.2537201259884;;;6.77265625;50.85142246930732
85053;BME280;75382;46.706;12.340;2024-03-23T03:43:22;1014.249912592941;;;6.7623046875;51.02589568149079
85053;BME280;75382;46.706;12.340;2024-03-23T03:44:22;1014.2451053937144;;;6.7470703125;50.937434831104035
85053;BME280;75382;46.706;12.340;2024-03-23T03:45:22;1014.196567750398;;;6.7369140625;51.217131518470374
85053;BME280;75382;46.706;12.340;2024-03-23T03:46:25;1014.1884772146403;;;6.7267578125;51.24440041062238
85053;BME280;75382;46.706;12.340;2024-03-23T03:47:22;1014.1229261367099;;;6.7115234375;51.13431814999194
85053;BME280;75382;46.706;12.340;2024-03-23T03:48:22;1014.1057475644;;;6.7013671875;51.336832331899906
85053;BME280;75382;46.706;12.340;2024-03-23T03:49:22;1014.0830016400937;;;6.6859375;51.27614353958081
85053;BME280;75382;46.706;12.340;2024-03-23T03:50:25;1014.0518101572247;;;6.67578125;51.133322740618524
85053;BME280;75382;46.706;12.340;2024-03-23T03:51:22;1014.0387961080514;;;6.670703125;51.20431651588152
85053;BME280;75382;46.706;12.340;2024-03-23T03:52:22;1014.0232602260683;;;6.665625;51.25918138863508
85053;BME280;75382;46.706;12.340;2024-03-23T03:53:22;1014.0033982517864;;;6.65546875;51.329831180356884
85053;BME280;75382;46.706;12.340;2024-03-23T03:54:22;1014.0166496095612;;;6.6453125;51.373375245304615
85053;BME280;75382;46.706;12.340;2024-03-23T03:55:22;1013.9873387225816;;;6.63515625;51.38949466645279
85053;BME280;75382;46.706;12.340;2024-03-23T03:56:23;1013.9603131718941;;;6.6197265625;51.218932141409304
85053;BME280;75382;46.706;12.340;2024-03-23T03:57:22;1013.9783695871175;;;6.6197265625;51.3121892980924
85053;BME280;75382;46.706;12.340;2024-03-23T03:58:22;1013.9556251393993;;;6.6095703125;51.15276934407657
85053;BME280;75382;46.706;12.340;2024-03-23T03:59:22;1013.8898045995319;;;6.5994140625;51.30636735627986
85053;BME280;75382;46.706;12.340;2024-03-23T04:00:22;1013.8890431410168;;;6.5994140625;51.28375352526121
85053;BME280;75382;46.706;12.340;2024-03-23T04:01:22;1013.9030540438815;;;6.5892578125;51.20695851652892
85053;BME280;75382;46.706;12.340;2024-03-23T04:02:22;1013.8964885152647;;;6.5791015625;51.459278446481896
85053;BME280;75382;46.706;12.340;2024-03-23T04:03:22;1013.8810725176052;;;6.5740234375;51.28307521562319
85053;BME280;75382;46.706;12.340;2024-03-23T04:04:24;1013.8705803803091;;;6.553515625;51.55697338575676
85053;BME280;75382;46.706;12.340;2024-03-23T04:05:22;1013.8871103962438;;;6.53828125;51.22722022791967
85053;BME280;75382;46.706;12.340;2024-03-23T04:06:22;1013.85259587601;;;6.533203125;51.380281643380066
85053;BME280;75382;46.706;12.340;2024-03-23T04:07:23;1013.8724066789608;;;6.51796875;51.42895400291451
85053;BME280;75382;46.706;12.340;2024-03-23T04:08:23;1013.8609183250528;;;6.512890625;51.538802404081466
85053;BME280;75382;46.706;12.340;2024-03-23T04:09:22;1013.8709967880909;;;6.49765625;51.41781634210986
85053;BME280;75382;46.706;12.340;2024-03-23T04:10:25;1013.877561349427;;;6.4875;51.609575535237624
85053;BME280;75382;46.706;12.340;2024-03-23T04:11:22;1013.8096281128604;;;6.4771484375;51.33471277891276
85053;BME280;75382;46.706;12.340;2024-03-23T04:12:30;1013.7940447736287;;;6.4568359375;51.47694528917276
85053;BME280;75382;46.706;12.340;2024-03-23T04:13:22;1013.8449167286044;;;6.4466796875;51.470950487584375
85053;BME280;75382;46.706;12.340;2024-03-23T04:14:34;1013.840871277546;;;6.4365234375;51.52029864182847
85053;BME280;75382;46.706;12.340;2024-03-23T04:15:27;1013.8115615346057;;;6.4263671875;51.56346999332795
85053;BME280;75382;46.706;12.340;2024-03-23T04:16:27;1013.814957158135;;;6.4162109375;51.574091931050134
85053;BME280;75382;46.706;12.340;2024-03-23T04:17:28;1013.811901704953;;;6.405859375;51.59019573167277
85053;BME280;75382;46.706;12.340;2024-03-23T04:18:22;1013.8209828735822;;;6.385546875;51.69897640030747
85053;BME280;75382;46.706;12.340;2024-03-23T04:19:22;1013.8192845511618;;;6.365234375;51.49048492599092
85053;BME280;75382;46.706;12.340;2024-03-23T04:20:22;1013.8283648414915;;;6.355078125;51.610919383087015
85053;BME280;75382;46.706;12.340;2024-03-23T04:21:22;1013.7491785364051;;;6.3447265625;51.5499240616622
85053;BME280;75382;46.706;12.340;2024-03-23T04:22:22;1013.7803519833088;;;6.3294921875;51.65903937901479
85053;BME280;75382;46.706;12.340;2024-03-23T04:23:22;1013.7622443031732;;;6.3193359375;51.7953738303287
85053;BME280;75382;46.706;12.340;2024-03-23T04:24:23;1013.7779956455743;;;6.3091796875;51.6684370676464
85053;BME280;75382;46.706;12.340;2024-03-23T04:25:23;1013.7700117571966;;;6.2787109375;51.55333775502725
85053;BME280;75382;46.706;12.340;2024-03-23T04:26:22;1013.7479189463212;;;6.2734375;51.61859133257286
85053;BME280;75382;46.706;12.340;2024-03-23T04:27:22;1013.7437627958169;;;6.26328125;51.85407832249471
85053;BME280;75382;46.706;12.340;2024-03-23T04:28:23;1013.6865637213272;;;6.248046875;51.700106410418414
85053;BME280;75382;46.706;12.340;2024-03-23T04:29:24;1013.722654821904;;;6.253125;51.77082624029101
85053;BME280;75382;46.706;12.340;2024-03-23T04:30:26;1013.7135139603038;;;6.237890625;51.80918610252562
85053;BME280;75382;46.706;12.340;2024-03-23T04:31:24;1013.6872665387306;;;6.2328125;51.96262121295948
85053;BME280;75382;46.706;12.340;2024-03-23T04:32:25;1013.6775330622938;;;6.22265625;51.76464150785064
85053;BME280;75382;46.706;12.340;2024-03-23T04:33:22;1013.6579570960292;;;6.217578125;51.78108074453213
85053;BME280;75382;46.706;12.340;2024-03-23T04:34:23;1013.662221240609;;;6.1919921875;51.82969669949266
85053;BME280;75382;46.706;12.340;2024-03-23T04:35:26;1013.6508471467723;;;6.1919921875;51.79647025351919
85053;BME280;75382;46.706;12.340;2024-03-23T04:36:22;1013.6196157601302;;;6.1767578125;51.93822281495472
85053;BME280;75382;46.706;12.340;2024-03-23T04:37:22;1013.6132702992733;;;6.1513671875;51.89403274945017
85053;BME280;75382;46.706;12.340;2024-03-23T04:38:22;1013.6157843256838;;;6.1359375;51.88784935652396
85053;BME280;75382;46.706;12.340;2024-03-23T04:39:23;1013.5733538356893;;;6.130859375;52.0847132199639
85053;BME280;75382;46.706;12.340;2024-03-23T04:40:22;1013.5488588364544;;;6.115625;51.7394028260171
85053;BME280;75382;46.706;12.340;2024-03-23T04:41:22;1013.5454039112229;;;6.100390625;51.9908749738736